createdAt,value
2022-10-29T00:08:55.973Z,100
2022-10-29T00:23:50.987Z,100
2022-10-29T00:38:47.386Z,100
2022-10-29T00:53:43.363Z,100
2022-10-29T01:08:39.872Z,100
2022-10-29T01:23:36.301Z,100
2022-10-29T01:38:32.614Z,100
2022-10-29T01:53:28.872Z,100
2022-10-29T02:08:24.664Z,100
2022-10-29T02:23:20.764Z,100
2022-10-29T02:38:17.234Z,100
2022-10-29T02:53:13.013Z,100
2022-10-29T03:08:08.924Z,100
2022-10-29T03:23:04.775Z,100
2022-10-29T03:38:00.880Z,100
2022-10-29T03:52:57.349Z,100
2022-10-29T04:07:53.970Z,100
2022-10-29T04:37:46.838Z,100
2022-10-29T04:52:43.232Z,100
2022-10-29T05:07:39.800Z,100
2022-10-29T05:22:35.880Z,100
2022-10-29T05:37:32.139Z,100
2022-10-29T05:52:28.610Z,100
2022-10-29T06:07:24.976Z,100
2022-10-29T06:22:21.414Z,100
2022-10-29T06:37:17.934Z,100
2022-10-29T06:52:14.280Z,100
2022-10-29T07:07:10.848Z,100
2022-10-29T07:22:07.024Z,100
2022-10-29T07:37:03.590Z,100
2022-10-29T07:52:00.125Z,100
2022-10-29T08:06:56.561Z,100
2022-10-29T08:21:53.113Z,100
2022-10-29T08:36:49.029Z,100
2022-10-29T08:51:45.329Z,100
2022-10-29T09:06:41.825Z,100
2022-10-29T09:21:38.225Z,100
2022-10-29T09:36:34.601Z,100
2022-10-29T09:51:31.060Z,100
2022-10-29T10:06:27.561Z,97.87
2022-10-29T10:21:23.900Z,91.72
2022-10-29T10:36:20.819Z,92.71
2022-10-29T10:51:17.445Z,93.03
2022-10-29T11:06:13.722Z,94.85
2022-10-29T11:21:10.246Z,93.45
2022-10-29T11:36:06.212Z,90.69
2022-10-29T11:51:02.350Z,89.14
2022-10-29T12:05:58.972Z,87.31
2022-10-29T12:20:55.664Z,85.79
2022-10-29T12:35:51.923Z,86.33
2022-10-29T12:50:47.779Z,85.49
2022-10-29T13:05:43.904Z,83.74
2022-10-29T13:20:40.890Z,82.29
2022-10-29T13:35:37.400Z,82.36
2022-10-29T13:50:33.081Z,81.84
2022-10-29T14:05:29.725Z,81.8
2022-10-29T14:20:25.672Z,81.66
2022-10-29T14:35:22.047Z,82.99
2022-10-29T14:50:18.077Z,82.98
2022-10-29T15:05:14.241Z,84.15
2022-10-29T15:20:10.175Z,83.9
2022-10-29T15:35:06.178Z,82.62
2022-10-29T15:50:02.037Z,79.17
2022-10-29T16:04:57.937Z,81.98
2022-10-29T16:19:53.451Z,85.34
2022-10-29T16:34:49.575Z,90.1
2022-10-29T16:49:45.559Z,88.95
2022-10-29T17:04:40.996Z,89.25
2022-10-29T17:19:37.269Z,84.15
2022-10-29T17:34:33.551Z,82.48
2022-10-29T17:49:30.043Z,82.45
2022-10-29T18:04:26.295Z,83.35
2022-10-29T18:19:22.593Z,83.48
2022-10-29T18:34:18.950Z,83.01
2022-10-29T18:49:15.386Z,85.42
2022-10-29T19:04:11.603Z,86.11
2022-10-29T19:19:08.156Z,87.87
2022-10-29T19:34:04.311Z,89.2
2022-10-29T19:49:00.441Z,87.91
2022-10-29T20:03:56.761Z,88.52
2022-10-29T20:18:52.586Z,89.75
2022-10-29T20:33:48.949Z,88.93
2022-10-29T20:48:45.440Z,89.71
2022-10-29T21:03:42.238Z,88.45
2022-10-29T21:18:38.431Z,86.96
2022-10-29T21:33:34.552Z,89.98
2022-10-29T21:48:30.623Z,97.87
2022-10-29T22:03:27.071Z,100
2022-10-29T22:18:23.465Z,100
2022-10-29T22:33:19.347Z,100
2022-10-29T22:48:15.573Z,100
2022-10-29T23:03:12.029Z,100
2022-10-29T23:18:08.811Z,100
2022-10-29T23:33:05.246Z,100
2022-10-29T23:48:01.637Z,100
